createdAt,value
2019-06-26T00:00:15.295Z,0.00
2019-06-26T00:01:15.302Z,0.00
2019-06-26T00:02:15.349Z,0.00
2019-06-26T00:03:15.371Z,0.00
2019-06-26T00:04:15.404Z,0.00
2019-06-26T00:05:15.444Z,0.00
2019-06-26T00:06:15.471Z,0.00
2019-06-26T00:07:15.506Z,0.00
2019-06-26T00:08:15.537Z,0.00
2019-06-26T00:09:15.575Z,0.00
2019-06-26T00:10:15.609Z,0.00
2019-06-26T00:11:15.644Z,0.00
2019-06-26T00:12:15.667Z,0.00
2019-06-26T00:13:25.663Z,0.00
2019-06-26T00:14:15.735Z,0.00
2019-06-26T00:15:15.782Z,0.00
2019-06-26T00:16:15.816Z,0.00
2019-06-26T00:17:15.840Z,0.00
2019-06-26T00:18:15.878Z,0.00
2019-06-26T00:19:15.898Z,0.00
2019-06-26T00:20:15.934Z,0.00
2019-06-26T00:21:15.968Z,0.00
2019-06-26T00:22:15.998Z,0.00
2019-06-26T00:23:16.040Z,0.00
2019-06-26T00:24:16.068Z,0.00
2019-06-26T00:25:18.951Z,0.00
2019-06-26T00:26:16.138Z,0.00
2019-06-26T00:27:16.164Z,0.00
2019-06-26T00:28:16.228Z,0.00
2019-06-26T00:29:16.231Z,0.00
2019-06-26T00:30:16.271Z,0.00
2019-06-26T00:31:16.299Z,0.00
2019-06-26T00:32:16.327Z,0.00
2019-06-26T00:33:16.586Z,0.00
2019-06-26T00:34:59.151Z,0.00
2019-06-26T00:35:59.005Z,0.00
2019-06-26T00:36:59.015Z,0.00
2019-06-26T00:37:59.046Z,0.00
2019-06-26T00:38:59.096Z,0.00
2019-06-26T00:39:59.333Z,0.00
2019-06-26T00:40:59.149Z,0.00
2019-06-26T00:41:59.178Z,0.00
2019-06-26T00:42:59.211Z,0.00
2019-06-26T00:43:59.254Z,0.00
2019-06-26T00:44:59.283Z,0.00
2019-06-26T00:45:59.320Z,0.00
2019-06-26T00:46:59.342Z,0.00
2019-06-26T00:47:59.383Z,0.00
2019-06-26T00:48:59.407Z,0.00
2019-06-26T00:49:59.449Z,0.00
2019-06-26T00:51:59.509Z,0.00
2019-06-26T00:52:59.542Z,0.00
2019-06-26T00:53:59.575Z,0.00
2019-06-26T00:54:59.609Z,0.00
2019-06-26T00:56:59.672Z,0.00
2019-06-26T00:57:59.716Z,0.00
2019-06-26T00:59:59.898Z,0.00
2019-06-26T01:00:59.820Z,0.00
2019-06-26T01:02:00.104Z,0.00
2019-06-26T01:02:59.871Z,0.00
2019-06-26T01:03:59.910Z,0.00
2019-06-26T01:04:59.938Z,0.00
2019-06-26T01:05:59.969Z,0.00
2019-06-26T01:07:00.000Z,0.00
2019-06-26T01:08:00.040Z,0.00
2019-06-26T01:09:00.069Z,0.00
2019-06-26T01:10:00.121Z,0.00
2019-06-26T01:11:00.267Z,0.00
2019-06-26T01:12:00.163Z,0.00
2019-06-26T01:13:00.199Z,0.00
2019-06-26T01:14:00.230Z,0.00
2019-06-26T01:15:00.275Z,0.00
2019-06-26T01:16:00.297Z,0.00
2019-06-26T01:17:00.332Z,0.00
2019-06-26T01:18:00.361Z,0.00
2019-06-26T01:19:00.397Z,0.00
2019-06-26T01:20:01.244Z,0.00
2019-06-26T01:21:00.466Z,0.00
2019-06-26T01:22:00.491Z,0.00
2019-06-26T01:23:00.523Z,0.00
2019-06-26T01:24:00.557Z,0.00
2019-06-26T01:25:00.600Z,0.00
2019-06-26T01:26:00.635Z,0.00
2019-06-26T01:27:00.654Z,0.00
2019-06-26T01:28:00.690Z,0.00
2019-06-26T01:29:00.729Z,0.00
2019-06-26T01:30:00.759Z,0.00
2019-06-26T01:31:00.797Z,0.00
2019-06-26T01:32:00.858Z,0.00
2019-06-26T01:33:03.489Z,0.00
2019-06-26T01:34:00.884Z,0.00
2019-06-26T01:36:00.948Z,0.00
2019-06-26T01:37:01.300Z,0.00
2019-06-26T01:38:01.012Z,0.00
2019-06-26T01:39:01.054Z,0.00
2019-06-26T01:40:01.145Z,0.00
2019-06-26T01:41:01.112Z,0.00
2019-06-26T01:42:01.370Z,0.00
2019-06-26T01:44:14.453Z,0.00
2019-06-26T01:47:01.306Z,0.00
2019-06-26T01:48:01.342Z,0.00
2019-06-26T01:49:01.379Z,0.00
2019-06-26T01:50:01.407Z,0.00
2019-06-26T01:51:01.446Z,0.00
2019-06-26T01:52:01.495Z,0.00
2019-06-26T01:53:01.506Z,0.00
2019-06-26T01:54:01.538Z,0.00
2019-06-26T01:55:01.571Z,0.00
2019-06-26T01:56:01.633Z,0.00
2019-06-26T01:57:01.638Z,0.00
2019-06-26T01:58:01.669Z,0.00
2019-06-26T01:59:01.701Z,0.00
2019-06-26T02:00:01.801Z,0.00
2019-06-26T02:01:01.778Z,0.00
2019-06-26T02:02:01.797Z,0.00
2019-06-26T02:03:02.004Z,0.00
2019-06-26T02:04:01.868Z,0.00
2019-06-26T02:05:01.925Z,0.00
2019-06-26T02:06:01.947Z,0.00
2019-06-26T02:07:01.964Z,0.00
2019-06-26T02:08:02.015Z,0.00
2019-06-26T02:09:02.027Z,0.00
2019-06-26T02:10:02.060Z,0.00
2019-06-26T02:11:02.095Z,0.00
2019-06-26T02:12:02.198Z,0.00
2019-06-26T02:13:02.165Z,0.00
2019-06-26T02:14:02.194Z,0.00
2019-06-26T02:15:02.291Z,0.00
2019-06-26T02:16:02.255Z,0.00
2019-06-26T02:17:02.604Z,0.00
2019-06-26T02:18:02.535Z,0.00
2019-06-26T02:19:02.354Z,0.00
2019-06-26T02:20:02.385Z,0.00
2019-06-26T02:21:02.418Z,0.00
2019-06-26T02:22:02.459Z,0.00
2019-06-26T02:23:02.480Z,0.00
2019-06-26T02:24:02.519Z,0.00
2019-06-26T02:25:03.302Z,0.00
2019-06-26T02:26:02.627Z,0.00
2019-06-26T02:27:02.644Z,0.00
2019-06-26T02:28:02.691Z,4.00
2019-06-26T02:29:02.676Z,4.00
2019-06-26T02:30:02.708Z,4.00
2019-06-26T02:31:02.746Z,4.00
2019-06-26T02:32:02.805Z,0.00
2019-06-26T02:33:02.816Z,4.00
2019-06-26T02:34:02.957Z,4.00
2019-06-26T02:35:02.872Z,4.00
2019-06-26T02:36:02.901Z,4.00
2019-06-26T02:37:02.951Z,4.00
2019-06-26T02:38:02.974Z,8.00
2019-06-26T02:39:03.004Z,8.00
2019-06-26T02:40:03.037Z,8.00
2019-06-26T02:41:03.063Z,8.00
2019-06-26T02:42:03.101Z,8.00
2019-06-26T02:43:06.841Z,12.00
2019-06-26T02:44:03.165Z,12.00
2019-06-26T02:45:03.198Z,12.00
2019-06-26T02:46:03.231Z,16.00
2019-06-26T02:47:18.164Z,20.00
2019-06-26T02:48:03.288Z,20.00
2019-06-26T02:49:03.320Z,20.00
2019-06-26T02:50:03.354Z,28.00
2019-06-26T02:51:03.386Z,32.00
2019-06-26T02:52:03.424Z,32.00
2019-06-26T02:53:03.453Z,36.00
2019-06-26T02:54:06.128Z,40.00
2019-06-26T02:55:03.519Z,44.00
2019-06-26T02:56:03.563Z,52.00
2019-06-26T02:57:03.792Z,60.00
2019-06-26T02:58:03.636Z,64.00
2019-06-26T02:59:51.211Z,76.00
2019-06-26T03:00:51.243Z,80.00
2019-06-26T03:01:51.280Z,88.00
2019-06-26T03:02:51.310Z,100.00
2019-06-26T03:03:51.346Z,108.00
2019-06-26T03:04:51.374Z,116.00
2019-06-26T03:05:51.404Z,124.00
2019-06-26T03:06:51.441Z,140.00
2019-06-26T03:07:51.479Z,148.00
2019-06-26T03:08:51.502Z,160.00
2019-06-26T03:09:51.535Z,176.00
2019-06-26T03:10:51.574Z,184.00
2019-06-26T03:11:51.611Z,200.00
2019-06-26T03:12:51.627Z,212.00
2019-06-26T03:13:51.984Z,228.00
2019-06-26T03:15:07.489Z,244.00
2019-06-26T03:15:51.730Z,256.00
2019-06-26T03:16:51.764Z,272.00
2019-06-26T03:17:55.766Z,288.00
2019-06-26T03:18:51.876Z,308.00
2019-06-26T03:19:51.852Z,324.00
2019-06-26T03:20:51.894Z,340.00
2019-06-26T03:21:51.917Z,364.00
2019-06-26T03:22:51.946Z,380.00
2019-06-26T03:23:51.991Z,404.00
2019-06-26T03:24:52.025Z,424.00
2019-06-26T03:25:52.067Z,444.00
2019-06-26T03:26:52.076Z,468.00
2019-06-26T03:27:52.109Z,488.00
2019-06-26T03:28:52.151Z,512.00
2019-06-26T03:29:52.170Z,536.00
2019-06-26T03:30:52.209Z,556.00
2019-06-26T03:31:52.236Z,580.00
2019-06-26T03:32:52.284Z,608.00
2019-06-26T03:33:52.308Z,636.00
2019-06-26T03:34:52.333Z,664.00
2019-06-26T03:35:52.374Z,692.00
2019-06-26T03:36:52.402Z,720.00
2019-06-26T03:37:52.427Z,744.00
2019-06-26T03:38:52.461Z,776.00
2019-06-26T03:39:52.504Z,804.00
2019-06-26T03:40:52.536Z,836.00
2019-06-26T03:41:52.573Z,868.00
2019-06-26T03:42:52.593Z,900.00
2019-06-26T03:43:52.626Z,928.00
2019-06-26T03:44:52.652Z,960.00
2019-06-26T03:45:52.682Z,992.00
2019-06-26T03:46:52.723Z,1020.00
2019-06-26T03:47:52.755Z,1052.00
2019-06-26T03:48:52.778Z,1084.00
2019-06-26T03:49:52.812Z,1116.00
2019-06-26T03:50:52.854Z,1144.00
2019-06-26T03:51:52.882Z,1172.00
2019-06-26T03:52:52.914Z,1220.00
2019-06-26T03:53:52.940Z,1268.00
2019-06-26T03:54:52.969Z,1312.00
2019-06-26T03:55:53.004Z,1360.00
2019-06-26T03:56:53.037Z,1400.00
2019-06-26T03:57:53.068Z,1440.00
2019-06-26T03:58:53.097Z,1488.00
2019-06-26T03:59:53.138Z,1532.00
2019-06-26T04:00:53.163Z,1576.00
2019-06-26T04:01:53.192Z,1616.00
2019-06-26T04:02:53.231Z,1656.00
2019-06-26T04:03:53.257Z,1700.00
2019-06-26T04:04:53.290Z,1748.00
2019-06-26T04:05:53.319Z,1792.00
2019-06-26T04:06:53.351Z,1832.00
2019-06-26T04:07:53.385Z,1872.00
2019-06-26T04:08:53.421Z,1916.00
2019-06-26T04:09:53.529Z,1960.00
2019-06-26T04:10:53.488Z,2000.00
2019-06-26T04:11:53.510Z,2052.00
2019-06-26T04:12:53.545Z,2100.00
2019-06-26T04:13:53.577Z,2152.00
2019-06-26T04:14:53.608Z,2200.00
2019-06-26T04:15:53.640Z,2244.00
2019-06-26T04:16:53.676Z,2288.00
2019-06-26T04:17:53.717Z,2332.00
2019-06-26T04:18:53.743Z,2372.00
2019-06-26T04:19:53.774Z,2416.00
2019-06-26T04:20:53.803Z,2460.00
2019-06-26T04:21:53.830Z,2504.00
2019-06-26T04:22:53.864Z,2548.00
2019-06-26T04:23:53.901Z,2596.00
2019-06-26T04:24:53.937Z,2640.00
2019-06-26T04:25:53.961Z,2688.00
2019-06-26T04:26:53.992Z,2736.00
2019-06-26T04:27:54.029Z,2788.00
2019-06-26T04:28:54.062Z,2832.00
2019-06-26T04:29:54.094Z,2880.00
2019-06-26T04:30:54.121Z,2916.00
2019-06-26T04:31:54.157Z,2956.00
2019-06-26T04:32:54.204Z,2992.00
2019-06-26T04:33:54.216Z,3024.00
2019-06-26T04:34:54.601Z,3064.00
2019-06-26T04:35:54.279Z,3100.00
2019-06-26T04:36:54.311Z,3148.00
2019-06-26T04:37:54.350Z,3200.00
2019-06-26T04:38:54.375Z,3252.00
2019-06-26T04:39:54.420Z,3304.00
2019-06-26T04:40:54.442Z,3380.00
2019-06-26T04:41:54.476Z,3492.00
2019-06-26T04:42:54.506Z,3548.00
2019-06-26T04:43:54.544Z,3532.00
2019-06-26T04:44:54.594Z,3560.00
2019-06-26T04:45:58.409Z,3612.00
2019-06-26T04:46:54.632Z,3688.00
2019-06-26T04:47:54.674Z,3764.00
2019-06-26T04:48:54.698Z,3832.00
2019-06-26T04:49:54.729Z,3888.00
2019-06-26T04:50:54.768Z,3968.00
2019-06-26T04:51:54.794Z,4128.00
2019-06-26T04:52:54.831Z,4364.00
2019-06-26T04:53:55.758Z,4536.00
2019-06-26T04:54:54.891Z,4620.00
2019-06-26T04:55:54.919Z,4692.00
2019-06-26T04:56:54.956Z,4764.00
2019-06-26T04:57:54.990Z,4832.00
2019-06-26T04:58:55.022Z,4924.00
2019-06-26T04:59:55.053Z,5016.00
2019-06-26T05:00:55.080Z,5084.00
2019-06-26T05:01:55.133Z,5144.00
2019-06-26T05:02:55.143Z,5216.00
2019-06-26T05:03:55.182Z,5296.00
2019-06-26T05:04:55.210Z,5348.00
2019-06-26T05:05:55.250Z,5440.00
2019-06-26T05:06:55.294Z,5524.00
2019-06-26T05:07:55.305Z,5600.00
2019-06-26T05:08:55.341Z,5672.00
2019-06-26T05:09:55.370Z,5748.00
2019-06-26T05:10:55.406Z,5828.00
2019-06-26T05:11:55.445Z,5916.00
2019-06-26T05:12:55.473Z,6000.00
2019-06-26T05:13:55.508Z,6120.00
2019-06-26T05:14:55.617Z,6196.00
2019-06-26T05:15:55.580Z,6288.00
2019-06-26T05:16:55.608Z,6380.00
2019-06-26T05:17:55.660Z,6460.00
2019-06-26T05:18:55.687Z,6540.00
2019-06-26T05:19:55.788Z,6620.00
2019-06-26T05:20:55.779Z,6732.00
2019-06-26T05:21:55.761Z,6800.00
2019-06-26T05:22:55.794Z,6916.00
2019-06-26T05:23:55.829Z,6988.00
2019-06-26T05:24:55.866Z,7112.00
2019-06-26T05:25:55.893Z,7260.00
2019-06-26T05:26:55.925Z,7400.00
2019-06-26T05:27:55.964Z,7560.00
2019-06-26T05:28:56.001Z,7684.00
2019-06-26T05:29:56.030Z,7852.00
2019-06-26T05:30:56.057Z,7952.00
2019-06-26T05:31:56.092Z,8136.00
2019-06-26T05:32:56.126Z,8236.00
2019-06-26T05:33:56.164Z,8392.00
2019-06-26T05:34:56.191Z,8492.00
2019-06-26T05:35:56.230Z,8644.00
2019-06-26T05:36:56.262Z,8828.00
2019-06-26T05:37:56.348Z,8944.00
2019-06-26T05:38:56.327Z,9160.00
2019-06-26T05:39:56.365Z,9316.00
2019-06-26T05:40:56.394Z,9484.00
2019-06-26T05:41:56.425Z,9624.00
2019-06-26T05:42:56.468Z,9996.00
2019-06-26T05:43:56.524Z,10236.00
2019-06-26T05:44:56.531Z,10528.00
2019-06-26T05:45:56.554Z,11164.00
2019-06-26T05:46:56.594Z,12088.00
2019-06-26T05:47:56.626Z,13484.00
2019-06-26T05:48:56.657Z,14976.00
2019-06-26T05:49:56.696Z,15904.00
2019-06-26T05:50:56.724Z,15872.00
2019-06-26T05:51:56.756Z,15776.00
2019-06-26T05:52:56.806Z,16736.00
2019-06-26T05:53:56.828Z,17824.00
2019-06-26T05:54:56.868Z,19040.00
2019-06-26T05:55:56.891Z,21984.00
2019-06-26T05:56:56.933Z,25152.00
2019-06-26T05:57:56.958Z,27200.00
2019-06-26T05:58:56.993Z,30112.00
2019-06-26T05:59:57.035Z,32768.00
2019-06-26T06:00:57.067Z,33408.00
2019-06-26T06:01:57.092Z,29440.00
2019-06-26T06:02:57.138Z,26592.00
2019-06-26T06:03:57.167Z,25280.00
2019-06-26T06:04:57.195Z,25728.00
2019-06-26T06:05:57.228Z,24672.00
2019-06-26T06:06:57.262Z,23200.00
2019-06-26T06:07:57.297Z,23392.00
2019-06-26T06:08:57.329Z,22208.00
2019-06-26T06:09:57.364Z,20608.00
2019-06-26T06:10:58.375Z,21472.00
2019-06-26T06:11:57.456Z,23232.00
2019-06-26T06:12:57.466Z,22944.00
2019-06-26T06:13:57.504Z,20064.00
2019-06-26T06:14:57.533Z,20448.00
2019-06-26T06:15:57.567Z,20672.00
2019-06-26T06:16:57.604Z,20832.00
2019-06-26T06:17:57.647Z,20832.00
2019-06-26T06:18:57.674Z,19872.00
2019-06-26T06:19:57.704Z,19008.00
2019-06-26T06:20:58.175Z,18752.00
2019-06-26T06:21:57.775Z,19072.00
2019-06-26T06:22:57.804Z,19648.00
2019-06-26T06:23:57.848Z,20800.00
2019-06-26T06:24:57.891Z,19648.00
2019-06-26T06:25:57.910Z,19168.00
2019-06-26T06:26:57.948Z,19648.00
2019-06-26T06:27:57.981Z,19872.00
2019-06-26T06:28:58.013Z,20160.00
2019-06-26T06:29:58.055Z,20736.00
2019-06-26T06:30:58.087Z,20032.00
2019-06-26T06:31:58.117Z,20352.00
2019-06-26T06:32:58.186Z,19424.00
2019-06-26T06:33:58.189Z,19840.00
2019-06-26T06:34:58.230Z,20352.00
2019-06-26T06:35:58.261Z,20800.00
2019-06-26T06:36:58.303Z,21088.00
2019-06-26T06:37:58.326Z,22400.00
2019-06-26T06:38:58.384Z,22752.00
2019-06-26T06:39:58.394Z,23168.00
2019-06-26T06:40:58.431Z,21952.00
2019-06-26T06:41:58.475Z,21056.00
2019-06-26T06:42:58.499Z,21696.00
2019-06-26T06:43:58.543Z,22944.00
2019-06-26T06:44:58.572Z,23392.00
2019-06-26T06:45:58.609Z,23840.00
2019-06-26T06:47:03.775Z,24128.00
2019-06-26T06:47:58.677Z,23968.00
2019-06-26T06:48:58.718Z,24992.00
2019-06-26T06:49:58.747Z,24576.00
2019-06-26T06:50:58.800Z,24416.00
2019-06-26T06:51:58.819Z,24960.00
2019-06-26T06:52:58.857Z,25728.00
2019-06-26T06:53:58.886Z,27584.00
2019-06-26T06:54:58.948Z,27520.00
2019-06-26T06:55:58.970Z,30240.00
2019-06-26T06:56:58.994Z,32288.00
2019-06-26T06:57:59.030Z,33728.00
2019-06-26T06:58:59.085Z,35616.00
2019-06-26T06:59:59.106Z,36512.00
2019-06-26T07:00:59.134Z,35968.00
2019-06-26T07:01:59.177Z,35840.00
2019-06-26T07:02:59.222Z,35008.00
2019-06-26T07:03:59.557Z,34464.00
2019-06-26T07:04:59.358Z,33504.00
2019-06-26T07:05:59.319Z,31776.00
2019-06-26T07:06:59.354Z,31680.00
2019-06-26T07:07:59.390Z,32160.00
2019-06-26T07:08:59.421Z,32096.00
2019-06-26T07:09:59.463Z,38208.00
2019-06-26T07:10:59.497Z,44480.00
2019-06-26T07:11:59.535Z,44064.00
2019-06-26T07:12:59.564Z,42976.00
2019-06-26T07:13:59.602Z,43616.00
2019-06-26T07:14:59.642Z,43936.00
2019-06-26T07:15:59.683Z,45440.00
2019-06-26T07:17:01.565Z,46048.00
2019-06-26T07:17:59.754Z,46496.00
2019-06-26T07:18:59.783Z,45312.00
2019-06-26T07:19:59.820Z,46592.00
2019-06-26T07:20:59.862Z,46784.00
2019-06-26T07:21:59.891Z,47072.00
2019-06-26T07:22:59.927Z,48160.00
2019-06-26T07:23:59.967Z,49600.00
2019-06-26T07:25:00.016Z,47808.00
2019-06-26T07:26:00.038Z,46688.00
2019-06-26T07:27:00.088Z,47520.00
2019-06-26T07:28:01.892Z,48640.00
2019-06-26T07:29:00.147Z,48960.00
2019-06-26T07:30:00.200Z,49824.00
2019-06-26T07:31:00.225Z,49472.00
2019-06-26T07:32:00.264Z,50080.00
2019-06-26T07:33:00.294Z,50720.00
2019-06-26T07:34:00.332Z,49120.00
2019-06-26T07:35:00.378Z,50496.00
2019-06-26T07:36:00.406Z,52448.00
2019-06-26T07:37:00.454Z,52896.00
2019-06-26T07:38:00.563Z,50816.00
2019-06-26T07:39:00.523Z,51744.00
2019-06-26T07:40:02.292Z,52672.00
2019-06-26T07:41:00.595Z,49472.00
2019-06-26T07:42:00.640Z,51584.00
2019-06-26T07:43:00.679Z,52480.00
2019-06-26T07:44:48.278Z,49824.00
2019-06-26T07:45:48.319Z,49472.00
2019-06-26T07:46:52.040Z,48608.00
2019-06-26T07:47:48.392Z,51072.00
2019-06-26T07:48:48.428Z,53056.00
2019-06-26T07:49:48.539Z,53184.00
2019-06-26T07:50:48.507Z,54336.00
2019-06-26T07:51:48.580Z,54240.00
2019-06-26T07:52:48.582Z,51360.00
2019-06-26T07:53:48.617Z,51936.00
2019-06-26T07:54:48.664Z,53152.00
2019-06-26T07:55:48.688Z,54144.00
2019-06-26T07:56:49.621Z,53696.00
2019-06-26T07:57:48.766Z,52640.00
2019-06-26T07:58:48.806Z,52480.00
2019-06-26T07:59:48.852Z,55104.00
2019-06-26T08:00:48.884Z,56544.00
2019-06-26T08:01:48.919Z,56256.00
2019-06-26T08:02:48.949Z,54816.00
2019-06-26T08:03:49.018Z,55616.00
2019-06-26T08:04:49.037Z,56064.00
2019-06-26T08:05:49.098Z,56416.00
2019-06-26T08:06:49.160Z,56384.00
2019-06-26T08:07:49.139Z,55424.00
2019-06-26T08:08:49.179Z,54880.00
2019-06-26T08:09:49.221Z,53312.00
2019-06-26T08:10:49.267Z,54848.00
2019-06-26T08:11:49.299Z,56224.00
2019-06-26T08:12:49.332Z,57920.00
2019-06-26T08:13:49.369Z,58432.00
2019-06-26T08:14:49.406Z,58368.00
2019-06-26T08:15:49.518Z,59808.00
2019-06-26T08:16:49.514Z,59424.00
2019-06-26T08:17:59.835Z,59296.00
2019-06-26T08:18:49.570Z,59072.00
2019-06-26T08:19:49.597Z,58304.00
2019-06-26T08:21:07.275Z,56992.00
2019-06-26T08:21:49.683Z,57984.00
2019-06-26T08:22:49.718Z,59328.00
2019-06-26T08:23:49.753Z,59328.00
2019-06-26T08:24:49.794Z,61312.00
2019-06-26T08:25:49.827Z,58976.00
2019-06-26T08:26:49.870Z,58720.00
2019-06-26T08:27:49.985Z,58560.00
2019-06-26T08:28:49.946Z,58496.00
2019-06-26T08:29:49.980Z,59552.00
2019-06-26T08:30:50.023Z,60000.00
2019-06-26T08:31:50.067Z,60640.00
2019-06-26T08:32:50.116Z,60160.00
2019-06-26T08:33:50.137Z,58816.00
2019-06-26T08:34:50.209Z,65216.00
2019-06-26T08:35:50.224Z,64352.00
2019-06-26T08:36:50.359Z,63744.00
2019-06-26T08:37:50.301Z,62400.00
2019-06-26T08:38:50.341Z,64288.00
2019-06-26T08:39:50.371Z,63744.00
2019-06-26T08:40:50.428Z,63648.00
2019-06-26T08:41:51.055Z,65344.00
2019-06-26T08:42:50.487Z,64096.00
2019-06-26T08:43:50.527Z,63200.00
2019-06-26T08:44:50.576Z,62240.00
2019-06-26T08:45:50.608Z,60224.00
2019-06-26T08:46:50.645Z,59200.00
2019-06-26T08:47:50.692Z,60736.00
2019-06-26T08:48:52.088Z,61408.00
2019-06-26T08:49:50.869Z,63872.00
2019-06-26T08:50:50.802Z,62944.00
2019-06-26T08:51:50.842Z,63680.00
2019-06-26T08:52:50.883Z,62592.00
2019-06-26T08:53:50.926Z,65504.00
2019-06-26T08:54:50.969Z,66240.00
2019-06-26T08:58:43.861Z,65632.00
2019-06-26T08:59:43.898Z,65760.00
2019-06-26T09:00:43.943Z,65632.00
2019-06-26T09:01:43.981Z,64512.00
2019-06-26T09:02:44.016Z,67680.00
2019-06-26T09:03:44.061Z,66592.00
2019-06-26T09:04:44.098Z,67872.00
2019-06-26T09:05:48.471Z,66848.00
2019-06-26T09:06:44.176Z,65632.00
2019-06-26T09:07:44.219Z,66304.00
2019-06-26T09:08:44.259Z,66304.00
2019-06-26T09:09:44.295Z,68864.00
2019-06-26T09:10:45.233Z,64896.00
2019-06-26T09:11:44.373Z,62816.00
2019-06-26T09:12:44.418Z,64288.00
2019-06-26T09:13:44.464Z,62752.00
2019-06-26T09:14:44.499Z,64000.00
2019-06-26T09:15:44.538Z,63008.00
2019-06-26T09:16:44.571Z,61888.00
2019-06-26T09:17:44.613Z,62880.00
2019-06-26T09:18:44.651Z,64384.00
2019-06-26T09:19:44.698Z,62528.00
2019-06-26T09:20:44.737Z,63776.00
2019-06-26T09:21:44.772Z,61472.00
2019-06-26T09:22:44.815Z,64128.00
2019-06-26T09:23:44.852Z,66048.00
2019-06-26T09:24:44.897Z,63968.00
2019-06-26T09:25:44.938Z,61696.00
2019-06-26T09:26:44.972Z,63264.00
2019-06-26T09:27:45.008Z,65664.00
2019-06-26T09:28:45.048Z,64096.00
2019-06-26T09:29:45.090Z,64896.00
2019-06-26T09:30:45.129Z,67744.00
2019-06-26T09:31:45.168Z,67008.00
2019-06-26T09:32:45.207Z,65408.00
2019-06-26T09:33:45.246Z,64608.00
2019-06-26T09:34:45.286Z,64960.00
2019-06-26T09:35:45.331Z,64896.00
2019-06-26T09:36:45.368Z,64768.00
2019-06-26T09:37:45.404Z,64960.00
2019-06-26T09:38:45.442Z,64352.00
2019-06-26T09:39:45.485Z,62144.00
2019-06-26T09:40:45.529Z,63232.00
2019-06-26T09:41:45.572Z,64192.00
2019-06-26T09:42:45.603Z,62560.00
2019-06-26T09:43:45.644Z,63392.00
2019-06-26T09:44:45.682Z,62272.00
2019-06-26T09:45:45.730Z,63712.00
2019-06-26T09:46:45.770Z,62752.00
2019-06-26T09:47:45.805Z,62368.00
2019-06-26T09:48:52.746Z,60512.00
2019-06-26T09:49:45.896Z,60992.00
2019-06-26T09:50:45.927Z,62688.00
2019-06-26T09:51:45.969Z,61952.00
2019-06-26T09:52:46.003Z,64928.00
2019-06-26T09:53:47.863Z,64736.00
2019-06-26T09:54:46.085Z,62336.00
2019-06-26T09:55:46.124Z,60384.00
2019-06-26T09:56:46.159Z,59840.00
2019-06-26T09:57:46.198Z,57824.00
2019-06-26T09:58:46.247Z,56544.00
2019-06-26T09:59:46.282Z,57696.00
2019-06-26T10:00:46.320Z,58720.00
2019-06-26T10:01:46.368Z,57248.00
2019-06-26T10:02:46.404Z,58240.00
2019-06-26T10:03:46.440Z,60672.00
2019-06-26T10:04:46.481Z,57632.00
2019-06-26T10:05:46.518Z,58816.00
2019-06-26T10:06:46.559Z,58336.00
2019-06-26T10:07:46.611Z,60736.00
2019-06-26T10:08:46.640Z,60576.00
2019-06-26T10:09:46.687Z,61408.00
2019-06-26T10:10:46.717Z,61984.00
2019-06-26T10:11:46.760Z,60352.00
2019-06-26T10:12:46.800Z,58720.00
2019-06-26T10:13:46.839Z,58432.00
2019-06-26T10:14:48.125Z,56064.00
2019-06-26T10:15:47.933Z,55360.00
2019-06-26T10:16:46.969Z,55712.00
2019-06-26T10:17:47.000Z,59648.00
2019-06-26T10:18:47.047Z,57120.00
2019-06-26T10:19:47.080Z,52160.00
2019-06-26T10:20:47.118Z,54656.00
2019-06-26T10:21:47.160Z,58336.00
2019-06-26T10:22:47.203Z,60416.00
2019-06-26T10:23:47.237Z,57856.00
2019-06-26T10:24:47.301Z,54912.00
2019-06-26T10:25:47.319Z,53472.00
2019-06-26T10:26:47.363Z,50816.00
2019-06-26T10:27:47.399Z,52768.00
2019-06-26T10:28:47.439Z,49600.00
2019-06-26T10:29:47.479Z,53312.00
2019-06-26T10:30:47.524Z,58112.00
2019-06-26T10:31:47.572Z,57824.00
2019-06-26T10:32:47.601Z,57344.00
2019-06-26T10:33:47.650Z,56576.00
2019-06-26T10:34:47.824Z,56832.00
2019-06-26T10:35:47.726Z,56640.00
2019-06-26T10:36:47.758Z,53216.00
2019-06-26T10:37:47.798Z,57280.00
2019-06-26T10:38:47.845Z,56064.00
2019-06-26T10:39:47.879Z,58016.00
2019-06-26T10:40:47.924Z,53408.00
2019-06-26T10:41:47.966Z,53472.00
2019-06-26T10:42:48.006Z,54208.00
2019-06-26T10:43:48.054Z,56096.00
2019-06-26T10:44:48.081Z,56864.00
2019-06-26T10:46:35.695Z,54336.00
2019-06-26T10:47:38.733Z,51136.00
2019-06-26T10:48:38.599Z,43104.00
2019-06-26T10:49:35.815Z,38816.00
2019-06-26T10:50:47.849Z,35200.00
2019-06-26T10:51:35.894Z,33696.00
2019-06-26T10:52:35.927Z,33152.00
2019-06-26T10:53:38.598Z,34304.00
2019-06-26T10:54:36.006Z,35808.00
2019-06-26T10:55:36.050Z,36320.00
2019-06-26T10:56:36.084Z,38272.00
2019-06-26T10:57:36.125Z,42048.00
2019-06-26T10:58:36.180Z,48672.00
2019-06-26T10:59:36.205Z,48864.00
2019-06-26T11:00:36.249Z,45088.00
2019-06-26T11:01:36.289Z,42176.00
2019-06-26T11:02:36.376Z,39008.00
2019-06-26T11:03:36.370Z,36096.00
2019-06-26T11:04:36.405Z,33280.00
2019-06-26T11:05:36.444Z,31872.00
2019-06-26T11:06:37.316Z,30624.00
2019-06-26T11:08:36.566Z,30464.00
2019-06-26T11:09:36.601Z,30016.00
2019-06-26T11:10:36.639Z,29696.00
2019-06-26T11:12:19.240Z,29088.00
2019-06-26T11:13:19.278Z,26976.00
2019-06-26T11:14:19.323Z,27392.00
2019-06-26T11:16:57.055Z,27456.00
2019-06-26T11:20:53.093Z,26400.00
2019-06-26T11:21:53.122Z,26528.00
2019-06-26T11:22:53.168Z,26016.00
2019-06-26T11:23:53.206Z,25408.00
2019-06-26T11:24:55.871Z,25792.00
2019-06-26T11:25:53.284Z,25728.00
2019-06-26T11:26:53.320Z,25312.00
2019-06-26T11:27:53.368Z,25088.00
2019-06-26T11:28:53.404Z,24672.00
2019-06-26T11:29:53.454Z,24384.00
2019-06-26T11:30:53.477Z,24032.00
2019-06-26T11:31:53.519Z,24256.00
2019-06-26T11:32:53.563Z,23840.00
2019-06-26T11:33:54.414Z,23808.00
2019-06-26T11:34:53.642Z,23808.00
2019-06-26T11:35:53.706Z,22944.00
2019-06-26T11:37:03.681Z,24288.00
2019-06-26T11:37:53.775Z,24288.00
2019-06-26T11:38:53.798Z,24032.00
2019-06-26T11:39:53.836Z,23296.00
2019-06-26T11:40:53.890Z,22848.00
2019-06-26T11:42:53.960Z,22336.00
2019-06-26T11:43:53.994Z,24288.00
2019-06-26T11:44:54.032Z,22912.00
2019-06-26T11:45:54.073Z,22592.00
2019-06-26T11:47:54.173Z,22240.00
2019-06-26T11:48:54.498Z,22688.00
2019-06-26T11:49:59.753Z,22496.00
2019-06-26T11:50:54.265Z,21792.00
2019-06-26T11:51:54.305Z,22272.00
2019-06-26T11:53:54.513Z,22208.00
2019-06-26T11:55:02.657Z,22560.00
2019-06-26T11:55:54.470Z,22272.00
2019-06-26T11:56:54.500Z,22688.00
2019-06-26T11:57:54.539Z,22336.00
2019-06-26T11:58:54.578Z,22624.00
2019-06-26T11:59:54.624Z,22272.00
2019-06-26T12:00:54.737Z,23200.00
2019-06-26T12:01:54.700Z,22592.00
2019-06-26T12:02:54.737Z,22784.00
2019-06-26T12:03:54.777Z,24160.00
2019-06-26T12:04:54.823Z,24320.00
2019-06-26T12:06:10.517Z,23328.00
2019-06-26T12:06:54.895Z,24096.00
2019-06-26T12:07:54.943Z,23776.00
2019-06-26T12:08:54.981Z,23744.00
2019-06-26T12:10:37.634Z,23840.00
2019-06-26T12:11:37.614Z,24416.00
2019-06-26T12:12:37.670Z,24640.00
2019-06-26T12:13:37.715Z,24416.00
2019-06-26T12:14:37.738Z,24096.00
2019-06-26T12:15:37.775Z,23008.00
2019-06-26T12:16:37.814Z,22528.00
2019-06-26T12:17:37.951Z,22368.00
2019-06-26T12:18:37.888Z,21376.00
2019-06-26T12:19:37.931Z,21728.00
2019-06-26T12:22:28.330Z,23136.00
2019-06-26T12:23:28.369Z,23136.00
2019-06-26T12:24:28.412Z,22144.00
2019-06-26T12:25:28.450Z,20672.00
2019-06-26T12:26:28.489Z,20064.00
2019-06-26T12:27:28.528Z,19456.00
2019-06-26T12:28:28.564Z,18448.00
2019-06-26T12:29:28.609Z,18076.00
2019-06-26T12:30:28.640Z,17516.00
2019-06-26T12:32:16.257Z,17120.00
2019-06-26T12:33:16.289Z,17104.00
2019-06-26T12:34:16.331Z,17112.00
2019-06-26T12:35:19.001Z,16952.00
2019-06-26T12:36:16.427Z,16528.00